sensor_id;sensor_type;location;lat;lon;timestamp;P1;durP1;ratioP1;P2;durP2;ratioP2
18364;SDS011;9309;52.126;11.616;2023-07-20T10:50:11;0.50;;;0.50;;
18364;SDS011;9309;52.126;11.616;2023-07-20T10:52:39;0.47;;;0.32;;
18364;SDS011;9309;52.126;11.616;2023-07-20T10:55:14;0.30;;;0.30;;
18364;SDS011;9309;52.126;11.616;2023-07-20T10:57:41;0.30;;;0.30;;
18364;SDS011;9309;52.126;11.616;2023-07-20T11:00:10;0.40;;;0.40;;
18364;SDS011;9309;52.126;11.616;2023-07-20T11:02:45;0.30;;;0.30;;
18364;SDS011;9309;52.126;11.616;2023-07-20T11:05:32;0.30;;;0.30;;
18364;SDS011;9309;52.126;11.616;2023-07-20T11:08:03;0.30;;;0.30;;
18364;SDS011;9309;52.126;11.616;2023-07-20T11:10:30;0.30;;;0.30;;
18364;SDS011;9309;52.126;11.616;2023-07-20T11:13:16;0.40;;;0.40;;
18364;SDS011;9309;52.126;11.616;2023-07-20T11:15:45;0.30;;;0.30;;
18364;SDS011;9309;52.126;11.616;2023-07-20T11:18:13;0.40;;;0.40;;
18364;SDS011;9309;52.126;11.616;2023-07-20T11:20:40;3.30;;;0.45;;
18364;SDS011;9309;52.126;11.616;2023-07-20T11:23:08;0.40;;;0.40;;
18364;SDS011;9309;52.126;11.616;2023-07-20T11:25:38;0.30;;;0.30;;
18364;SDS011;9309;52.126;11.616;2023-07-20T11:28:09;0.40;;;0.40;;
18364;SDS011;9309;52.126;11.616;2023-07-20T11:30:36;0.22;;;0.22;;
18364;SDS011;9309;52.126;11.616;2023-07-20T11:33:05;0.40;;;0.40;;
18364;SDS011;9309;52.126;11.616;2023-07-20T11:35:35;0.35;;;0.35;;
18364;SDS011;9309;52.126;11.616;2023-07-20T11:38:02;0.47;;;0.30;;
18364;SDS011;9309;52.126;11.616;2023-07-20T11:40:30;0.40;;;0.40;;
18364;SDS011;9309;52.126;11.616;2023-07-20T11:42:57;0.30;;;0.30;;
18364;SDS011;9309;52.126;11.616;2023-07-20T11:45:23;0.20;;;0.20;;
18364;SDS011;9309;52.126;11.616;2023-07-20T11:47:52;0.40;;;0.40;;
18364;SDS011;9309;52.126;11.616;2023-07-20T11:50:20;0.32;;;0.32;;
18364;SDS011;9309;52.126;11.616;2023-07-20T11:52:47;0.30;;;0.30;;
18364;SDS011;9309;52.126;11.616;2023-07-20T11:55:14;0.28;;;0.28;;
18364;SDS011;9309;52.126;11.616;2023-07-20T11:57:41;0.38;;;0.38;;
18364;SDS011;9309;52.126;11.616;2023-07-20T12:00:26;0.30;;;0.30;;
18364;SDS011;9309;52.126;11.616;2023-07-20T12:02:53;0.40;;;0.40;;
18364;SDS011;9309;52.126;11.616;2023-07-20T12:05:23;0.40;;;0.40;;
18364;SDS011;9309;52.126;11.616;2023-07-20T12:07:51;0.40;;;0.40;;
18364;SDS011;9309;52.126;11.616;2023-07-20T12:10:23;0.47;;;0.47;;
18364;SDS011;9309;52.126;11.616;2023-07-20T12:12:51;0.30;;;0.30;;
18364;SDS011;9309;52.126;11.616;2023-07-20T12:15:19;0.40;;;0.40;;
18364;SDS011;9309;52.126;11.616;2023-07-20T12:17:49;0.22;;;0.22;;
18364;SDS011;9309;52.126;11.616;2023-07-20T12:20:26;0.20;;;0.20;;
18364;SDS011;9309;52.126;11.616;2023-07-20T12:22:55;0.30;;;0.30;;
18364;SDS011;9309;52.126;11.616;2023-07-20T12:25:32;0.47;;;0.47;;
18364;SDS011;9309;52.126;11.616;2023-07-20T12:28:09;0.25;;;0.25;;
18364;SDS011;9309;52.126;11.616;2023-07-20T12:30:37;0.50;;;0.50;;
18364;SDS011;9309;52.126;11.616;2023-07-20T12:33:04;2.17;;;0.60;;
18364;SDS011;9309;52.126;11.616;2023-07-20T12:35:33;0.40;;;0.40;;
18364;SDS011;9309;52.126;11.616;2023-07-20T12:38:00;0.30;;;0.30;;
18364;SDS011;9309;52.126;11.616;2023-07-20T12:40:27;0.28;;;0.28;;
18364;SDS011;9309;52.126;11.616;2023-07-20T12:42:54;0.52;;;0.52;;
18364;SDS011;9309;52.126;11.616;2023-07-20T12:45:21;0.30;;;0.30;;
18364;SDS011;9309;52.126;11.616;2023-07-20T12:47:48;0.40;;;0.40;;
18364;SDS011;9309;52.126;11.616;2023-07-20T12:50:15;0.40;;;0.40;;
18364;SDS011;9309;52.126;11.616;2023-07-20T12:52:43;0.20;;;0.20;;
18364;SDS011;9309;52.126;11.616;2023-07-20T12:55:10;0.30;;;0.30;;
18364;SDS011;9309;52.126;11.616;2023-07-20T12:57:37;1.45;;;0.43;;
18364;SDS011;9309;52.126;11.616;2023-07-20T13:00:05;0.30;;;0.30;;
18364;SDS011;9309;52.126;11.616;2023-07-20T13:02:33;0.40;;;0.40;;
18364;SDS011;9309;52.126;11.616;2023-07-20T13:05:01;0.38;;;0.38;;
18364;SDS011;9309;52.126;11.616;2023-07-20T13:07:29;0.30;;;0.30;;
18364;SDS011;9309;52.126;11.616;2023-07-20T13:09:58;0.38;;;0.38;;
18364;SDS011;9309;52.126;11.616;2023-07-20T13:12:26;0.30;;;0.30;;
18364;SDS011;9309;52.126;11.616;2023-07-20T13:14:53;0.20;;;0.20;;
18364;SDS011;9309;52.126;11.616;2023-07-20T13:17:21;0.50;;;0.50;;
18364;SDS011;9309;52.126;11.616;2023-07-20T13:19:48;0.32;;;0.32;;
18364;SDS011;9309;52.126;11.616;2023-07-20T13:22:15;0.75;;;0.30;;
18364;SDS011;9309;52.126;11.616;2023-07-20T13:24:44;1.08;;;0.57;;
18364;SDS011;9309;52.126;11.616;2023-07-20T13:27:13;0.43;;;0.43;;
18364;SDS011;9309;52.126;11.616;2023-07-20T13:29:40;0.30;;;0.30;;
18364;SDS011;9309;52.126;11.616;2023-07-20T13:32:07;0.40;;;0.40;;
18364;SDS011;9309;52.126;11.616;2023-07-20T13:34:34;0.20;;;0.20;;
18364;SDS011;9309;52.126;11.616;2023-07-20T13:37:01;0.30;;;0.30;;
18364;SDS011;9309;52.126;11.616;2023-07-20T13:39:28;0.30;;;0.30;;
18364;SDS011;9309;52.126;11.616;2023-07-20T13:41:55;1.85;;;0.40;;
18364;SDS011;9309;52.126;11.616;2023-07-20T13:44:23;0.20;;;0.20;;
18364;SDS011;9309;52.126;11.616;2023-07-20T13:46:50;0.20;;;0.20;;
18364;SDS011;9309;52.126;11.616;2023-07-20T13:49:17;0.47;;;0.47;;
18364;SDS011;9309;52.126;11.616;2023-07-20T13:51:44;0.30;;;0.30;;
18364;SDS011;9309;52.126;11.616;2023-07-20T13:54:11;1.95;;;0.40;;
18364;SDS011;9309;52.126;11.616;2023-07-20T13:56:38;0.28;;;0.28;;
18364;SDS011;9309;52.126;11.616;2023-07-20T13:59:04;0.38;;;0.38;;
18364;SDS011;9309;52.126;11.616;2023-07-20T14:01:33;1.65;;;0.40;;
18364;SDS011;9309;52.126;11.616;2023-07-20T14:04:00;0.40;;;0.40;;
18364;SDS011;9309;52.126;11.616;2023-07-20T14:06:29;0.30;;;0.30;;
18364;SDS011;9309;52.126;11.616;2023-07-20T14:08:57;0.43;;;0.43;;
18364;SDS011;9309;52.126;11.616;2023-07-20T14:11:24;0.50;;;0.50;;
18364;SDS011;9309;52.126;11.616;2023-07-20T14:13:51;0.40;;;0.40;;
18364;SDS011;9309;52.126;11.616;2023-07-20T14:16:19;0.50;;;0.50;;
18364;SDS011;9309;52.126;11.616;2023-07-20T14:18:48;0.50;;;0.50;;
18364;SDS011;9309;52.126;11.616;2023-07-20T14:21:15;0.40;;;0.40;;
18364;SDS011;9309;52.126;11.616;2023-07-20T14:23:44;0.38;;;0.38;;
18364;SDS011;9309;52.126;11.616;2023-07-20T14:26:11;0.52;;;0.52;;
18364;SDS011;9309;52.126;11.616;2023-07-20T14:28:38;0.30;;;0.30;;
18364;SDS011;9309;52.126;11.616;2023-07-20T14:31:05;0.40;;;0.40;;
18364;SDS011;9309;52.126;11.616;2023-07-20T14:33:32;0.77;;;0.77;;
18364;SDS011;9309;52.126;11.616;2023-07-20T14:36:01;0.60;;;0.60;;
18364;SDS011;9309;52.126;11.616;2023-07-20T14:38:28;1.00;;;0.70;;
18364;SDS011;9309;52.126;11.616;2023-07-20T14:40:56;0.60;;;0.60;;
18364;SDS011;9309;52.126;11.616;2023-07-20T14:43:23;1.65;;;0.60;;
18364;SDS011;9309;52.126;11.616;2023-07-20T14:45:50;1.25;;;1.17;;
18364;SDS011;9309;52.126;11.616;2023-07-20T14:48:16;0.65;;;0.65;;
18364;SDS011;9309;52.126;11.616;2023-07-20T14:50:43;0.63;;;0.63;;
18364;SDS011;9309;52.126;11.616;2023-07-20T14:53:13;0.50;;;0.50;;
18364;SDS011;9309;52.126;11.616;2023-07-20T14:55:41;0.75;;;0.60;;
18364;SDS011;9309;52.126;11.616;2023-07-20T14:58:09;0.93;;;0.93;;
18364;SDS011;9309;52.126;11.616;2023-07-20T15:00:36;0.40;;;0.40;;
18364;SDS011;9309;52.126;11.616;2023-07-20T15:03:03;0.60;;;0.60;;
18364;SDS011;9309;52.126;11.616;2023-07-20T15:05:30;0.45;;;0.45;;
18364;SDS011;9309;52.126;11.616;2023-07-20T15:07:58;0.60;;;0.60;;
18364;SDS011;9309;52.126;11.616;2023-07-20T15:10:26;0.60;;;0.60;;
18364;SDS011;9309;52.126;11.616;2023-07-20T15:12:53;0.65;;;0.65;;
18364;SDS011;9309;52.126;11.616;2023-07-20T15:15:20;0.50;;;0.50;;
18364;SDS011;9309;52.126;11.616;2023-07-20T15:17:47;0.75;;;0.70;;
18364;SDS011;9309;52.126;11.616;2023-07-20T15:20:15;0.68;;;0.68;;
18364;SDS011;9309;52.126;11.616;2023-07-20T15:22:42;0.55;;;0.55;;
18364;SDS011;9309;52.126;11.616;2023-07-20T15:25:09;0.70;;;0.70;;
18364;SDS011;9309;52.126;11.616;2023-07-20T15:27:39;0.60;;;0.60;;
18364;SDS011;9309;52.126;11.616;2023-07-20T15:30:08;0.60;;;0.60;;
18364;SDS011;9309;52.126;11.616;2023-07-20T15:32:35;2.05;;;0.70;;
18364;SDS011;9309;52.126;11.616;2023-07-20T15:35:02;0.65;;;0.65;;
18364;SDS011;9309;52.126;11.616;2023-07-20T15:37:31;0.57;;;0.57;;
18364;SDS011;9309;52.126;11.616;2023-07-20T15:39:58;0.60;;;0.60;;
18364;SDS011;9309;52.126;11.616;2023-07-20T15:42:29;0.68;;;0.68;;
18364;SDS011;9309;52.126;11.616;2023-07-20T15:44:57;0.70;;;0.70;;
18364;SDS011;9309;52.126;11.616;2023-07-20T15:47:24;0.60;;;0.60;;
18364;SDS011;9309;52.126;11.616;2023-07-20T15:49:51;0.50;;;0.50;;
18364;SDS011;9309;52.126;11.616;2023-07-20T15:52:18;0.50;;;0.50;;
18364;SDS011;9309;52.126;11.616;2023-07-20T15:54:44;0.73;;;0.73;;
18364;SDS011;9309;52.126;11.616;2023-07-20T15:57:11;0.80;;;0.80;;
18364;SDS011;9309;52.126;11.616;2023-07-20T15:59:38;0.63;;;0.63;;
18364;SDS011;9309;52.126;11.616;2023-07-20T16:02:07;0.98;;;0.98;;
18364;SDS011;9309;52.126;11.616;2023-07-20T16:04:34;0.57;;;0.57;;
18364;SDS011;9309;52.126;11.616;2023-07-20T16:07:00;0.80;;;0.80;;
18364;SDS011;9309;52.126;11.616;2023-07-20T16:09:27;0.60;;;0.60;;
18364;SDS011;9309;52.126;11.616;2023-07-20T16:11:54;1.20;;;0.90;;
18364;SDS011;9309;52.126;11.616;2023-07-20T16:14:21;1.00;;;0.60;;
18364;SDS011;9309;52.126;11.616;2023-07-20T16:16:48;0.65;;;0.65;;
18364;SDS011;9309;52.126;11.616;2023-07-20T16:19:16;0.70;;;0.70;;
18364;SDS011;9309;52.126;11.616;2023-07-20T16:21:43;0.80;;;0.80;;
18364;SDS011;9309;52.126;11.616;2023-07-20T16:24:10;0.70;;;0.70;;
18364;SDS011;9309;52.126;11.616;2023-07-20T16:26:37;1.38;;;0.55;;
18364;SDS011;9309;52.126;11.616;2023-07-20T16:29:08;0.55;;;0.55;;
18364;SDS011;9309;52.126;11.616;2023-07-20T16:31:35;0.60;;;0.60;;
18364;SDS011;9309;52.126;11.616;2023-07-20T16:34:02;0.77;;;0.77;;
18364;SDS011;9309;52.126;11.616;2023-07-20T16:36:30;0.52;;;0.52;;
18364;SDS011;9309;52.126;11.616;2023-07-20T16:38:58;0.60;;;0.60;;
18364;SDS011;9309;52.126;11.616;2023-07-20T16:41:25;0.60;;;0.60;;
18364;SDS011;9309;52.126;11.616;2023-07-20T16:43:52;2.15;;;0.82;;
18364;SDS011;9309;52.126;11.616;2023-07-20T16:46:19;0.63;;;0.63;;
18364;SDS011;9309;52.126;11.616;2023-07-20T16:48:46;1.08;;;1.08;;
18364;SDS011;9309;52.126;11.616;2023-07-20T16:51:13;0.60;;;0.60;;
18364;SDS011;9309;52.126;11.616;2023-07-20T16:53:41;0.90;;;0.90;;
18364;SDS011;9309;52.126;11.616;2023-07-20T16:56:08;1.52;;;1.10;;
18364;SDS011;9309;52.126;11.616;2023-07-20T16:58:35;0.80;;;0.80;;
18364;SDS011;9309;52.126;11.616;2023-07-20T17:01:02;1.20;;;0.90;;
18364;SDS011;9309;52.126;11.616;2023-07-20T17:03:30;0.82;;;0.82;;
18364;SDS011;9309;52.126;11.616;2023-07-20T17:05:58;1.80;;;0.80;;
18364;SDS011;9309;52.126;11.616;2023-07-20T17:08:25;0.80;;;0.80;;
18364;SDS011;9309;52.126;11.616;2023-07-20T17:10:53;0.80;;;0.80;;
18364;SDS011;9309;52.126;11.616;2023-07-20T17:13:20;2.30;;;0.60;;
18364;SDS011;9309;52.126;11.616;2023-07-20T17:15:47;0.90;;;0.90;;
18364;SDS011;9309;52.126;11.616;2023-07-20T17:18:14;0.88;;;0.88;;
18364;SDS011;9309;52.126;11.616;2023-07-20T17:20:41;1.55;;;1.30;;
18364;SDS011;9309;52.126;11.616;2023-07-20T17:23:08;2.30;;;1.00;;
18364;SDS011;9309;52.126;11.616;2023-07-20T17:25:35;1.05;;;1.00;;
18364;SDS011;9309;52.126;11.616;2023-07-20T17:28:03;0.93;;;0.93;;
18364;SDS011;9309;52.126;11.616;2023-07-20T17:30:30;1.85;;;1.38;;
18364;SDS011;9309;52.126;11.616;2023-07-20T17:32:57;0.93;;;0.93;;
18364;SDS011;9309;52.126;11.616;2023-07-20T17:35:24;1.42;;;1.10;;
18364;SDS011;9309;52.126;11.616;2023-07-20T17:37:53;1.05;;;0.80;;
18364;SDS011;9309;52.126;11.616;2023-07-20T17:40:20;1.00;;;0.98;;
18364;SDS011;9309;52.126;11.616;2023-07-20T17:42:47;1.00;;;1.00;;
18364;SDS011;9309;52.126;11.616;2023-07-20T17:45:16;0.82;;;0.82;;
18364;SDS011;9309;52.126;11.616;2023-07-20T17:47:43;3.03;;;1.00;;
18364;SDS011;9309;52.126;11.616;2023-07-20T17:50:10;0.98;;;0.98;;
18364;SDS011;9309;52.126;11.616;2023-07-20T17:52:37;0.93;;;0.93;;
18364;SDS011;9309;52.126;11.616;2023-07-20T17:55:04;1.55;;;1.27;;
18364;SDS011;9309;52.126;11.616;2023-07-20T17:57:32;1.55;;;0.90;;
18364;SDS011;9309;52.126;11.616;2023-07-20T17:59:58;1.17;;;1.17;;
18364;SDS011;9309;52.126;11.616;2023-07-20T18:02:27;0.82;;;0.82;;
18364;SDS011;9309;52.126;11.616;2023-07-20T18:04:54;0.80;;;0.80;;
18364;SDS011;9309;52.126;11.616;2023-07-20T18:07:21;0.90;;;0.90;;
18364;SDS011;9309;52.126;11.616;2023-07-20T18:09:47;1.42;;;1.05;;
18364;SDS011;9309;52.126;11.616;2023-07-20T18:12:14;0.80;;;0.80;;
18364;SDS011;9309;52.126;11.616;2023-07-20T18:14:41;0.93;;;0.93;;
18364;SDS011;9309;52.126;11.616;2023-07-20T18:17:08;1.25;;;1.05;;
18364;SDS011;9309;52.126;11.616;2023-07-20T18:19:36;0.93;;;0.88;;
18364;SDS011;9309;52.126;11.616;2023-07-20T18:22:03;2.65;;;1.40;;
18364;SDS011;9309;52.126;11.616;2023-07-20T18:24:31;0.85;;;0.82;;
18364;SDS011;9309;52.126;11.616;2023-07-20T18:26:57;1.15;;;1.10;;
18364;SDS011;9309;52.126;11.616;2023-07-20T18:29:24;1.15;;;1.13;;
18364;SDS011;9309;52.126;11.616;2023-07-20T18:31:51;2.72;;;1.10;;
18364;SDS011;9309;52.126;11.616;2023-07-20T18:34:18;1.02;;;1.02;;
18364;SDS011;9309;52.126;11.616;2023-07-20T18:36:46;1.05;;;1.05;;
18364;SDS011;9309;52.126;11.616;2023-07-20T18:39:13;0.98;;;0.98;;
18364;SDS011;9309;52.126;11.616;2023-07-20T18:41:40;1.08;;;0.95;;
18364;SDS011;9309;52.126;11.616;2023-07-20T18:44:07;1.02;;;1.02;;
18364;SDS011;9309;52.126;11.616;2023-07-20T18:46:33;0.85;;;0.85;;
18364;SDS011;9309;52.126;11.616;2023-07-20T18:49:00;1.02;;;0.95;;
18364;SDS011;9309;52.126;11.616;2023-07-20T18:51:27;1.00;;;1.00;;
18364;SDS011;9309;52.126;11.616;2023-07-20T18:53:55;1.00;;;1.00;;
18364;SDS011;9309;52.126;11.616;2023-07-20T18:56:22;1.13;;;1.13;;
18364;SDS011;9309;52.126;11.616;2023-07-20T18:58:49;2.65;;;1.00;;
18364;SDS011;9309;52.126;11.616;2023-07-20T19:01:15;2.20;;;1.02;;
18364;SDS011;9309;52.126;11.616;2023-07-20T19:03:42;0.95;;;0.95;;
18364;SDS011;9309;52.126;11.616;2023-07-20T19:06:09;1.00;;;1.00;;
18364;SDS011;9309;52.126;11.616;2023-07-20T19:08:36;1.08;;;1.08;;
18364;SDS011;9309;52.126;11.616;2023-07-20T19:11:04;1.10;;;1.10;;
18364;SDS011;9309;52.126;11.616;2023-07-20T19:13:31;1.20;;;1.10;;
18364;SDS011;9309;52.126;11.616;2023-07-20T19:15:58;1.45;;;1.40;;
18364;SDS011;9309;52.126;11.616;2023-07-20T19:18:28;0.90;;;0.90;;
18364;SDS011;9309;52.126;11.616;2023-07-20T19:20:57;1.27;;;1.10;;
18364;SDS011;9309;52.126;11.616;2023-07-20T19:23:24;0.97;;;0.97;;
18364;SDS011;9309;52.126;11.616;2023-07-20T19:25:51;1.47;;;1.10;;
18364;SDS011;9309;52.126;11.616;2023-07-20T19:28:19;1.13;;;1.13;;
18364;SDS011;9309;52.126;11.616;2023-07-20T19:30:46;1.17;;;1.17;;
18364;SDS011;9309;52.126;11.616;2023-07-20T19:33:13;1.00;;;1.00;;
18364;SDS011;9309;52.126;11.616;2023-07-20T19:35:40;1.00;;;1.00;;
18364;SDS011;9309;52.126;11.616;2023-07-20T19:38:06;1.30;;;1.00;;
18364;SDS011;9309;52.126;11.616;2023-07-20T19:40:33;1.07;;;1.07;;
18364;SDS011;9309;52.126;11.616;2023-07-20T19:43:01;0.90;;;0.90;;
18364;SDS011;9309;52.126;11.616;2023-07-20T19:45:30;1.33;;;1.23;;
18364;SDS011;9309;52.126;11.616;2023-07-20T19:47:57;2.80;;;1.20;;
18364;SDS011;9309;52.126;11.616;2023-07-20T19:50:26;0.97;;;0.97;;
18364;SDS011;9309;52.126;11.616;2023-07-20T19:52:53;0.87;;;0.87;;
18364;SDS011;9309;52.126;11.616;2023-07-20T19:55:20;1.43;;;1.20;;
18364;SDS011;9309;52.126;11.616;2023-07-20T19:57:46;1.17;;;1.17;;
18364;SDS011;9309;52.126;11.616;2023-07-20T20:00:14;1.30;;;1.20;;
18364;SDS011;9309;52.126;11.616;2023-07-20T20:02:44;1.53;;;1.20;;
18364;SDS011;9309;52.126;11.616;2023-07-20T20:05:10;3.30;;;1.07;;
18364;SDS011;9309;52.126;11.616;2023-07-20T20:07:40;1.00;;;1.00;;
18364;SDS011;9309;52.126;11.616;2023-07-20T20:10:07;1.10;;;1.10;;
18364;SDS011;9309;52.126;11.616;2023-07-20T20:12:35;1.37;;;1.27;;
18364;SDS011;9309;52.126;11.616;2023-07-20T20:15:02;1.00;;;1.00;;
18364;SDS011;9309;52.126;11.616;2023-07-20T20:17:30;3.10;;;1.23;;
18364;SDS011;9309;52.126;11.616;2023-07-20T20:19:58;0.97;;;0.97;;
18364;SDS011;9309;52.126;11.616;2023-07-20T20:22:24;1.00;;;1.00;;
18364;SDS011;9309;52.126;11.616;2023-07-20T20:24:51;1.23;;;1.23;;
18364;SDS011;9309;52.126;11.616;2023-07-20T20:27:18;1.30;;;1.20;;
18364;SDS011;9309;52.126;11.616;2023-07-20T20:29:45;1.07;;;1.00;;
18364;SDS011;9309;52.126;11.616;2023-07-20T20:32:12;1.20;;;0.90;;
18364;SDS011;9309;52.126;11.616;2023-07-20T20:34:38;1.00;;;1.00;;
18364;SDS011;9309;52.126;11.616;2023-07-20T20:37:06;1.10;;;0.93;;
18364;SDS011;9309;52.126;11.616;2023-07-20T20:39:33;3.27;;;1.30;;
18364;SDS011;9309;52.126;11.616;2023-07-20T20:42:00;1.20;;;1.20;;
18364;SDS011;9309;52.126;11.616;2023-07-20T20:44:27;0.90;;;0.90;;
18364;SDS011;9309;52.126;11.616;2023-07-20T20:46:54;2.93;;;1.63;;
18364;SDS011;9309;52.126;11.616;2023-07-20T20:49:25;2.00;;;1.13;;
18364;SDS011;9309;52.126;11.616;2023-07-20T20:51:53;4.00;;;1.00;;
18364;SDS011;9309;52.126;11.616;2023-07-20T20:54:22;1.20;;;1.20;;
18364;SDS011;9309;52.126;11.616;2023-07-20T20:56:48;1.70;;;1.10;;
18364;SDS011;9309;52.126;11.616;2023-07-20T20:59:15;1.03;;;1.03;;
18364;SDS011;9309;52.126;11.616;2023-07-20T21:01:45;1.40;;;1.30;;
18364;SDS011;9309;52.126;11.616;2023-07-20T21:04:12;1.90;;;1.30;;
18364;SDS011;9309;52.126;11.616;2023-07-20T21:06:39;1.00;;;1.00;;
18364;SDS011;9309;52.126;11.616;2023-07-20T21:09:06;1.30;;;1.20;;
18364;SDS011;9309;52.126;11.616;2023-07-20T21:11:34;1.37;;;1.27;;
18364;SDS011;9309;52.126;11.616;2023-07-20T21:14:01;1.33;;;1.30;;
18364;SDS011;9309;52.126;11.616;2023-07-20T21:16:28;1.50;;;1.40;;
18364;SDS011;9309;52.126;11.616;2023-07-20T21:18:55;1.20;;;1.20;;
18364;SDS011;9309;52.126;11.616;2023-07-20T21:21:22;1.33;;;1.23;;
18364;SDS011;9309;52.126;11.616;2023-07-20T21:23:49;1.07;;;1.07;;
18364;SDS011;9309;52.126;11.616;2023-07-20T21:26:15;1.63;;;1.20;;
18364;SDS011;9309;52.126;11.616;2023-07-20T21:28:43;1.20;;;1.20;;
18364;SDS011;9309;52.126;11.616;2023-07-20T21:31:10;2.47;;;1.30;;
18364;SDS011;9309;52.126;11.616;2023-07-20T21:33:38;1.10;;;1.10;;
18364;SDS011;9309;52.126;11.616;2023-07-20T21:36:05;1.40;;;1.40;;
18364;SDS011;9309;52.126;11.616;2023-07-20T21:38:31;1.50;;;1.50;;
18364;SDS011;9309;52.126;11.616;2023-07-20T21:41:02;0.90;;;0.90;;
18364;SDS011;9309;52.126;11.616;2023-07-20T21:43:29;1.40;;;1.40;;
18364;SDS011;9309;52.126;11.616;2023-07-20T21:45:58;1.23;;;1.13;;
18364;SDS011;9309;52.126;11.616;2023-07-20T21:48:24;2.50;;;1.40;;
18364;SDS011;9309;52.126;11.616;2023-07-20T21:50:52;1.43;;;1.43;;
18364;SDS011;9309;52.126;11.616;2023-07-20T21:53:19;1.57;;;1.47;;
18364;SDS011;9309;52.126;11.616;2023-07-20T21:55:47;2.67;;;1.40;;
18364;SDS011;9309;52.126;11.616;2023-07-20T21:58:14;2.43;;;1.33;;
18364;SDS011;9309;52.126;11.616;2023-07-20T22:00:43;2.23;;;2.13;;
18364;SDS011;9309;52.126;11.616;2023-07-20T22:03:11;1.30;;;1.30;;
18364;SDS011;9309;52.126;11.616;2023-07-20T22:05:40;3.43;;;1.67;;
18364;SDS011;9309;52.126;11.616;2023-07-20T22:08:10;1.80;;;1.70;;
18364;SDS011;9309;52.126;11.616;2023-07-20T22:10:37;1.80;;;1.73;;
18364;SDS011;9309;52.126;11.616;2023-07-20T22:13:05;1.77;;;1.60;;
18364;SDS011;9309;52.126;11.616;2023-07-20T22:15:33;1.50;;;1.40;;
18364;SDS011;9309;52.126;11.616;2023-07-20T22:18:00;1.40;;;1.40;;
18364;SDS011;9309;52.126;11.616;2023-07-20T22:20:28;1.17;;;1.17;;
18364;SDS011;9309;52.126;11.616;2023-07-20T22:22:56;3.13;;;1.80;;
18364;SDS011;9309;52.126;11.616;2023-07-20T22:25:23;2.67;;;1.60;;
18364;SDS011;9309;52.126;11.616;2023-07-20T22:27:50;2.10;;;1.63;;
18364;SDS011;9309;52.126;11.616;2023-07-20T22:30:17;3.93;;;1.80;;
18364;SDS011;9309;52.126;11.616;2023-07-20T22:32:45;2.30;;;1.73;;
18364;SDS011;9309;52.126;11.616;2023-07-20T22:35:12;1.63;;;1.53;;
18364;SDS011;9309;52.126;11.616;2023-07-20T22:37:40;1.70;;;1.70;;
18364;SDS011;9309;52.126;11.616;2023-07-20T22:40:07;1.40;;;1.40;;
18364;SDS011;9309;52.126;11.616;2023-07-20T22:42:35;1.50;;;1.50;;
18364;SDS011;9309;52.126;11.616;2023-07-20T22:45:02;2.87;;;1.43;;
18364;SDS011;9309;52.126;11.616;2023-07-20T22:47:30;1.57;;;1.47;;
18364;SDS011;9309;52.126;11.616;2023-07-20T22:49:58;2.67;;;1.73;;
18364;SDS011;9309;52.126;11.616;2023-07-20T22:52:25;1.83;;;1.73;;
18364;SDS011;9309;52.126;11.616;2023-07-20T22:54:54;1.60;;;1.50;;
18364;SDS011;9309;52.126;11.616;2023-07-20T22:57:21;2.43;;;1.73;;
18364;SDS011;9309;52.126;11.616;2023-07-20T22:59:48;4.80;;;2.00;;
18364;SDS011;9309;52.126;11.616;2023-07-20T23:02:15;2.10;;;2.00;;
18364;SDS011;9309;52.126;11.616;2023-07-20T23:04:42;2.00;;;1.90;;
18364;SDS011;9309;52.126;11.616;2023-07-20T23:07:10;1.70;;;1.60;;
18364;SDS011;9309;52.126;11.616;2023-07-20T23:09:37;2.40;;;2.03;;
18364;SDS011;9309;52.126;11.616;2023-07-20T23:12:05;2.60;;;1.90;;
18364;SDS011;9309;52.126;11.616;2023-07-20T23:14:33;1.83;;;1.73;;
18364;SDS011;9309;52.126;11.616;2023-07-20T23:16:59;1.63;;;1.50;;
18364;SDS011;9309;52.126;11.616;2023-07-20T23:19:26;1.43;;;1.40;;
18364;SDS011;9309;52.126;11.616;2023-07-20T23:21:55;3.87;;;1.73;;
18364;SDS011;9309;52.126;11.616;2023-07-20T23:24:24;2.23;;;1.80;;
18364;SDS011;9309;52.126;11.616;2023-07-20T23:26:51;2.00;;;1.83;;
18364;SDS011;9309;52.126;11.616;2023-07-20T23:29:20;2.07;;;1.97;;
18364;SDS011;9309;52.126;11.616;2023-07-20T23:31:47;1.67;;;1.67;;
18364;SDS011;9309;52.126;11.616;2023-07-20T23:34:15;1.80;;;1.70;;
18364;SDS011;9309;52.126;11.616;2023-07-20T23:36:41;2.33;;;1.60;;
18364;SDS011;9309;52.126;11.616;2023-07-20T23:39:08;1.77;;;1.77;;
18364;SDS011;9309;52.126;11.616;2023-07-20T23:41:35;1.83;;;1.73;;
18364;SDS011;9309;52.126;11.616;2023-07-20T23:44:02;1.50;;;1.40;;
18364;SDS011;9309;52.126;11.616;2023-07-20T23:46:30;1.40;;;1.40;;
18364;SDS011;9309;52.126;11.616;2023-07-20T23:48:58;6.23;;;1.60;;
18364;SDS011;9309;52.126;11.616;2023-07-20T23:51:26;1.80;;;1.80;;
18364;SDS011;9309;52.126;11.616;2023-07-20T23:53:53;2.63;;;2.40;;
18364;SDS011;9309;52.126;11.616;2023-07-20T23:56:21;3.43;;;1.73;;
18364;SDS011;9309;52.126;11.616;2023-07-20T23:58:49;2.03;;;1.90;;
